Hovedside
METAR-TAF:

METAR-TAF

Lufthavner :

Førde, Norge

Førde lufthamn. Bringeland

breddegrad: 61-27N, lengdegrad: 005-52E, høyde over havet: 150 m

Gjeldene værobservasjon

Denne rapporten ble laget for 12 minutter siden, klokken 07:20 UTC
Vind 3 kt fra Vest, skiftende mellom Sørvest og Nordvest
Temperatur 5°C
Luftfuktighet 93%
Trykk 1016 hPa
Sikt: 1500 m
Få skyer
Spredte skyer i en høyde av 500 ft
Brutte skyer i en høyde av 1400 ft
lette regnbyger, tåke i nærheten

METAR: ENBL 210720Z 27003KT 230V320 5000 1500W -SHRA VCFG FEW/// SCT005 BKN014 05/04 Q1016

Tid: 09:32 (07:32 UTC)


TAF: fraværende

Værobservasjoner og værvarsel for over 4000 flyplasser (METAR- og TAF-rapporter).

Tilgjengelige stasjoner er representert av de røde og gule prikkene på kartet.

Hold musepekeren over prikken for å se navnet på stasjonen.

Klikk så for å se værobservasjoner og -varsler.

For å forandre kartet kan du klikke på den grønne knappen med svart kryss for å zoome inn, på den grønne knappen med strek for å zoome ut, eller på de grønne pilene for å se tilstøtende kart.


METAR-TAF: